Latest Weather Observations for Orange Airport

IDN60801

Issued at 9:05 am EDT Tuesday 25 November 2014 (issued every 30 minutes, with the page automatically refreshed every 10 minutes)

About weather observations | Map of weather stations | Latest weather observations for NSW | Other Formats
Station Details ID: 063303 Name: ORANGE AIRPORT AWS Lat: -33.38 Lon: 149.13 Height: 947.4 m
Data from the previous 72 hours. | See also: Recent months at Orange Airport
Date/Time
EDT
Temp
°C
App
Temp
°C
Dew
Point
Rel
Hum
%
Delta-T
°C
Wind Press
QNH
hPa
Press
MSL
hPa
Rain
since 9 am
mm
Dir
 
Spd
km/h
Gust
km/h
Spd
kts
Gust
kts
25/09:00am 10.9 5.4 5.7 70 2.5 SW 24 32 13 17 1018.5 1015.5 4.2
25/08:30am 10.7 5.1 5.5 70 2.5 SSW 24 35 13 19 1018.2 1015.2 4.2
25/08:00am 10.7 6.0 6.1 73 2.3 SW 20 37 11 20 1017.9 1015.0 4.2
25/07:30am 11.2 5.9 8.4 83 1.5 SW 26 35 14 19 1017.5 1014.5 4.2
25/07:22am 11.7 7.0 10.6 93 0.6 SW 26 33 14 18 1017.2 1014.2 4.2
25/07:03am 12.0 8.1 10.9 93 0.6 SW 22 30 12 16 1017.0 1014.0 4.2
25/07:00am 12.0 8.1 10.9 93 0.6 SW 22 30 12 16 1017.0 1014.0 4.2
25/06:52am 11.9 7.2 10.8 93 0.6 SSW 26 35 14 19 1016.7 1013.8 4.2
25/06:45am 12.1 6.7 11.0 93 0.6 SSW 30 37 16 20 1016.5 1013.5 4.2
25/06:32am 13.6 9.4 12.5 93 0.6 SW 26 43 14 23 1016.2 1013.2 4.2
25/06:30am 14.0 10.4 12.9 93 0.6 SW 24 35 13 19 1016.1 1013.1 4.2
25/06:26am 14.0 10.7 12.9 93 0.6 SW 22 28 12 15 1016.0 1013.0 4.2
25/06:07am 14.2 9.9 13.1 93 0.6 WSW 28 35 15 19 1016.0 1013.0 4.2
25/06:00am 14.2 10.6 13.1 93 0.6 SW 24 35 13 19 1015.9 1012.9 4.2
25/05:49am 14.4 11.3 13.3 93 0.6 SW 22 32 12 17 1015.5 1012.5 4.2
25/05:30am 14.6 11.1 13.5 93 0.6 WSW 24 32 13 17 1015.1 1012.1 4.2
25/05:11am 14.9 11.5 13.8 93 0.6 WSW 24 32 13 17 1014.8 1011.7 4.2
25/05:07am 15.0 11.7 13.9 93 0.6 WSW 24 32 13 17 1014.7 1011.6 4.2
25/05:00am 15.1 12.6 14.0 93 0.6 WSW 20 28 11 15 1014.7 1011.6 4.2
25/04:30am 15.0 12.4 13.9 93 0.6 W 20 26 11 14 1014.4 1011.4 4.2
25/04:00am 14.7 14.7 13.6 93 0.6 NNW 6 11 3 6 1013.2 1010.2 4.2
25/03:30am 15.0 12.4 13.9 93 0.6 WNW 20 28 11 15 1014.7 1011.6 4.0
25/03:00am 15.0 13.8 13.9 93 0.6 NW 13 19 7 10 1015.1 1012.1 3.8
25/02:30am 15.4 13.2 14.3 93 0.7 NNW 19 24 10 13 1015.1 1012.1 3.6
25/02:00am 15.5 13.6 14.2 92 0.8 W 17 24 9 13 1015.2 1012.2 2.6
25/01:30am 16.8 14.6 14.8 88 1.2 W 20 26 11 14 1015.1 1012.1 2.0
25/01:00am 16.4 17.4 15.3 93 0.7 N 4 11 2 6 1014.9 1011.9 1.8
25/12:30am 16.5 16.9 15.4 93 0.7 WNW 7 9 4 5 1015.0 1012.0 1.8
25/12:00am 16.9 16.0 15.8 93 0.7 WSW 15 19 8 10 1015.5 1012.5 1.6
 
Date/Time
EDT
Temp
°C
App
Temp
°C
Dew
Point
Rel
Hum
%
Delta-T
°C
Wind Press
QNH
hPa
Press
MSL
hPa
Rain
since 9 am
mm
Dir
 
Spd
km/h
Gust
km/h
Spd
kts
Gust
kts
24/11:30pm 19.0 14.6 15.7 81 2.0 WSW 33 48 18 26 1015.9 1012.9 0.8
24/11:28pm 19.1 15.4 16.0 82 1.9 WSW 30 46 16 25 1015.9 1012.9 0.8
24/11:00pm 18.2 17.5 16.4 89 1.1 NNW 15 19 8 10 1015.6 1012.6 0.6
24/10:30pm 18.1 18.5 16.4 90 1.1 N 9 13 5 7 1015.5 1012.5 0.6
24/10:00pm 18.6 19.3 16.0 85 1.6 N 7 11 4 6 1015.3 1012.3 0.2
24/09:30pm 18.6 17.9 15.5 82 1.9 NW 13 15 7 8 1015.7 1012.7 0.2
24/09:00pm 19.8 19.0 15.0 74 2.9 WNW 13 19 7 10 1015.4 1012.4 0.2
24/08:30pm 21.3 21.2 14.0 63 4.4 WNW 7 11 4 6 1014.7 1011.6 0.0
24/08:00pm 22.2 20.9 13.8 59 5.1 W 13 19 7 10 1014.4 1011.4 0.0
24/07:30pm 22.7 21.4 13.7 56 5.5 W 13 17 7 9 1013.7 1010.6 0.0
24/07:00pm 23.1 22.8 14.4 58 5.3 W 9 17 5 9 1013.0 1010.0 0.0
24/06:30pm 23.3 23.0 14.3 57 5.5 SW 9 15 5 8 1012.6 1009.5 0.0
24/06:00pm 24.4 22.4 13.9 52 6.4 W 17 30 9 16 1012.2 1009.2 0.0
24/05:30pm 25.8 23.0 13.3 46 7.6 W 20 28 11 15 1012.8 1009.7 0.0
24/05:00pm 26.2 23.7 14.0 47 7.5 W 20 30 11 16 1013.0 1010.0 0.0
24/04:30pm 25.4 21.7 13.9 49 7.1 W 26 35 14 19 1013.6 1010.5 0.0
24/04:00pm 26.4 20.9 13.5 45 7.9 WSW 35 46 19 25 1013.4 1010.4 0.0
24/03:36pm 27.1 22.0 13.1 42 8.6 WSW 32 37 17 20 1013.7 1010.6 0.0
24/03:30pm 27.5 21.3 12.7 40 9.0 WNW 37 46 20 25 1013.7 1010.6 0.0
24/03:00pm 30.7 26.2 13.9 36 10.5 WNW 30 48 16 26 1013.8 1010.7 0.0
24/02:39pm 30.0 25.0 13.3 36 10.3 WNW 32 50 17 27 1013.9 1010.8 0.0
24/02:30pm 30.1 25.9 13.4 36 10.4 WNW 28 43 15 23 1014.1 1011.1 0.0
24/02:00pm 28.5 25.0 15.4 45 8.3 WNW 28 37 15 20 1014.8 1011.7 0.0
24/01:39pm 26.7 22.1 14.5 47 7.6 WNW 32 57 17 31 1014.9 1011.9 0.0
24/01:30pm 28.4 24.1 14.3 42 8.8 NW 30 43 16 23 1015.0 1012.0 0.0
24/01:09pm 28.3 22.3 12.2 37 9.7 NW 35 57 19 31 1015.0 1012.0 0.0
24/01:00pm 29.7 23.7 12.2 34 10.7 NW 35 46 19 25 1014.9 1011.9 0.0
24/12:30pm 29.9 25.1 12.8 35 10.5 NNW 30 48 16 26 1015.0 1012.0 0.0
24/12:29pm 30.1 25.2 12.5 34 10.8 N 30 48 16 26 1015.0 1012.0 0.0
24/12:00pm 30.5 24.8 12.9 34 10.9 NNW 35 50 19 27 1015.4 1012.4 0.0
24/11:54am 31.2 26.4 13.0 33 11.3 NNW 30 50 16 27 1015.4 1012.4 0.0
24/11:30am 29.4 25.8 13.2 37 10.0 N 24 37 13 20 1015.9 1012.9 0.0
24/11:00am 28.0 24.0 13.1 39 9.1 N 26 33 14 18 1016.4 1013.4 0.0
24/10:30am 26.9 24.7 14.3 46 7.8 N 19 24 10 13 1016.6 1013.6 0.0
24/10:00am 26.0 24.4 13.8 47 7.5 NNE 15 20 8 11 1017.1 1014.1 0.0
24/09:30am 24.0 24.0 15.2 58 5.5 NNE 9 15 5 8 1017.5 1014.5 0.0
24/09:00am 22.5 22.9 15.4 64 4.4 N 7 9 4 5 1017.8 1014.9 0.0
24/08:30am 22.2 22.5 15.1 64 4.4 N 7 9 4 5 1017.6 1014.6 0.0
24/08:00am 20.7 22.4 15.3 71 3.3 CALM 0 6 0 3 1017.8 1014.9 0.0
24/07:30am 19.8 21.3 14.6 72 3.2 CALM 0 0 0 0 1017.8 1014.9 0.0
24/07:00am 18.9 19.2 14.6 76 2.6 SW 6 11 3 6 1017.6 1014.6 0.0
24/06:30am 16.9 16.5 13.0 78 2.3 ENE 7 9 4 5 1017.4 1014.4 0.0
24/06:00am 17.1 16.1 12.2 73 2.8 ENE 9 11 5 6 1017.2 1014.2 0.0
24/05:30am 16.8 15.6 12.7 77 2.4 E 11 13 6 7 1017.1 1014.1 0.0
24/05:00am 16.2 15.8 12.9 81 1.9 SSE 7 9 4 5 1017.3 1014.3 0.0
24/04:30am 17.7 16.6 13.0 74 2.8 S 11 13 6 7 1017.9 1015.0 0.0
24/04:00am 16.7 16.1 11.8 73 2.8 NNW 6 11 3 6 1017.9 1015.0 0.0
24/03:30am 20.0 19.5 12.5 62 4.4 NNW 7 9 4 5 1018.4 1015.4 0.0
24/03:00am 19.6 18.4 12.8 65 4.0 NW 11 11 6 6 1018.9 1016.0 0.0
24/02:30am 18.8 17.0 12.1 65 3.9 WNW 13 17 7 9 1018.9 1016.0 0.0
24/02:00am 19.8 19.1 11.3 58 4.9 NW 6 9 3 5 1018.9 1016.0 0.0
24/01:30am 20.1 18.6 11.8 59 4.8 NE 11 24 6 13 1019.0 1016.1 0.0
24/01:00am 18.8 17.4 12.3 66 3.8 SSE 11 13 6 7 1018.8 1015.9 0.0
24/12:30am 21.3 19.3 11.6 54 5.6 SSW 13 17 7 9 1019.0 1016.1 0.0
24/12:00am 19.0 18.7 12.7 67 3.7 W 6 13 3 7 1019.5 1016.5 0.0
 
Date/Time
EDT
Temp
°C
App
Temp
°C
Dew
Point
Rel
Hum
%
Delta-T
°C
Wind Press
QNH
hPa
Press
MSL
hPa
Rain
since 9 am
mm
Dir
 
Spd
km/h
Gust
km/h
Spd
kts
Gust
kts
23/11:30pm 18.9 19.2 13.5 71 3.2 NNW 4 9 2 5 1019.6 1016.7 0.0
23/11:00pm 19.0 18.7 13.4 70 3.3 WNW 7 11 4 6 1018.9 1016.0 0.0
23/10:30pm 19.6 19.4 13.1 66 3.9 WNW 6 7 3 4 1018.3 1015.3 0.0
23/10:00pm 19.3 17.7 11.6 61 4.4 E 11 13 6 7 1017.7 1014.8 0.0
23/09:30pm 20.0 18.4 11.5 58 4.9 E 11 13 6 7 1017.6 1014.6 0.0
23/09:00pm 20.5 21.3 12.7 61 4.6 CALM 0 0 0 0 1017.2 1014.2 0.0
23/08:30pm 22.6 20.4 12.0 51 6.2 SSW 15 20 8 11 1016.7 1013.8 0.0
23/08:00pm 24.6 21.4 10.1 40 8.3 SSW 17 20 9 11 1016.7 1013.8 0.0
23/07:30pm 25.2 21.6 9.9 38 8.8 S 19 22 10 12 1016.8 1013.9 0.0
23/07:00pm 26.5 22.7 9.8 35 9.6 S 20 28 11 15 1017.1 1014.1 0.0
23/06:30pm 27.2 21.6 10.0 34 10.0 SW 30 43 16 23 1016.1 1013.1 0.0
23/06:04pm 28.0 20.1 9.3 31 10.8 SW 41 59 22 32 1015.7 1012.7 0.0
23/06:00pm 28.2 19.8 9.0 30 11.0 SW 43 59 23 32 1015.7 1012.7 0.0
23/05:57pm 28.4 19.8 8.7 29 11.3 SW 44 59 24 32 1015.6 1012.6 0.0
23/05:52pm 29.0 21.2 8.1 27 11.9 SW 39 48 21 26 1015.5 1012.5 0.0
23/05:30pm 29.0 18.8 10.2 31 11.1 W 54 72 29 39 1015.3 1012.3 0.0
23/05:29pm 30.0 19.4 8.4 26 12.4 W 54 72 29 39 1015.4 1012.4 0.0
23/05:26pm 31.2 19.8 7.6 23 13.5 W 57 72 31 39 1015.3 1012.3 0.0
23/05:25pm 31.6 25.1 6.6 21 14.1 NW 30 72 16 39 1015.2 1012.2 0.0
23/05:24pm 32.3 26.2 5.0 18 15.0 NW 26 69 14 37 1015.1 1012.1 0.0
23/05:00pm 34.3 27.5 4.9 16 16.3 NW 30 46 16 25 1014.5 1011.5 0.0
23/04:52pm 34.5 27.9 4.1 15 16.7 NW 28 46 15 25 1014.4 1011.4 0.0
23/04:30pm 35.7 30.6 6.0 16 16.9 NW 22 32 12 17 1014.4 1011.4 0.0
23/04:00pm 35.9 29.1 3.2 13 17.8 W 28 39 15 21 1014.7 1011.6 0.0
23/03:30pm 35.1 28.0 3.6 14 17.2 NW 30 43 16 23 1015.1 1012.1 0.0
23/03:00pm 36.3 29.0 2.4 12 18.3 WNW 30 48 16 26 1015.6 1012.6 0.0
23/02:39pm 36.4 29.1 4.6 14 17.7 WNW 32 52 17 28 1015.9 1012.9 0.0
23/02:30pm 36.3 29.2 5.5 15 17.4 WNW 32 48 17 26 1016.1 1013.1 0.0
23/02:00pm 36.1 30.1 5.4 15 17.3 WNW 26 43 14 23 1016.3 1013.3 0.0
23/01:58pm 36.6 30.3 5.8 15 17.5 WNW 28 46 15 25 1016.4 1013.4 0.0
23/01:30pm 36.0 28.9 6.2 16 17.0 NW 33 44 18 24 1016.7 1013.8 0.0
23/01:15pm 36.0 29.6 7.1 17 16.7 NW 30 48 16 26 1016.7 1013.8 0.0
23/01:00pm 35.6 28.8 6.8 17 16.5 NW 32 44 17 24 1017.1 1014.1 0.0
23/12:30pm 35.3 28.6 5.7 16 16.7 NNW 30 48 16 26 1017.3 1014.3 0.0
23/12:28pm 34.8 28.6 6.2 17 16.2 NNW 28 48 15 26 1017.2 1014.2 0.0
23/12:00pm 32.6 27.3 6.7 20 14.6 NW 24 30 13 16 1017.5 1014.5 0.0
23/11:30am 34.3 27.4 6.6 18 15.8 NNW 32 46 17 25 1017.5 1014.5 0.0
23/11:00am 33.3 25.5 5.0 17 15.6 N 35 46 19 25 1017.5 1014.5 0.0
23/10:40am 33.1 26.8 5.6 18 15.3 NNW 28 46 15 25 1017.5 1014.5 0.0
23/10:30am 32.5 25.0 4.3 17 15.3 NNW 33 44 18 24 1017.4 1014.4 0.0
23/10:00am 31.9 26.4 7.5 22 13.9 N 26 39 14 21 1017.3 1014.3 0.0
23/09:30am 30.5 25.6 7.0 23 13.2 N 22 30 12 16 1017.4 1014.4 0.0
23/09:00am 29.4 25.2 7.3 25 12.4 N 19 28 10 15 1017.4 1014.4 0.0
23/08:30am 27.3 25.2 9.6 33 10.2 N 11 15 6 8 1017.2 1014.2 0.0
23/08:00am 24.7 22.1 9.4 38 8.7 N 13 15 7 8 1017.1 1014.1 0.0
23/07:30am 22.0 20.9 10.8 49 6.4 N 7 11 4 6 1016.8 1013.9 0.0
23/07:28am 21.5 20.7 11.2 52 6.0 N 6 11 3 6 1016.8 1013.9 0.0
23/07:00am 16.5 16.7 10.6 68 3.3 CALM 0 0 0 0 1016.6 1013.6 0.0
23/06:30am 17.6 17.5 9.5 59 4.5 CALM 0 0 0 0 1016.4 1013.4 0.0
23/06:00am 16.4 16.0 8.4 59 4.3 CALM 0 0 0 0 1016.1 1013.1 0.0
23/05:30am 16.0 14.8 8.0 59 4.2 S 4 9 2 5 1016.0 1013.0 0.0
23/05:00am 17.1 16.8 8.8 58 4.5 CALM 0 0 0 0 1016.1 1013.1 0.0
23/04:30am 15.8 15.4 9.9 68 3.2 SW 2 17 1 9 1016.0 1013.0 0.0
23/04:00am 17.9 15.4 8.2 53 5.2 WSW 11 19 6 10 1016.1 1013.1 0.0
23/03:30am 18.2 17.7 7.9 51 5.5 CALM 0 0 0 0 1015.6 1012.6 0.0
23/03:00am 16.3 15.1 8.0 58 4.4 SW 4 9 2 5 1015.6 1012.6 0.0
23/02:30am 16.3 15.8 8.0 58 4.4 CALM 0 0 0 0 1015.7 1012.7 0.0
23/02:00am 16.2 16.1 9.4 64 3.7 CALM 0 0 0 0 1016.2 1013.2 0.0
23/01:30am 16.2 16.3 10.1 67 3.4 CALM 0 0 0 0 1016.5 1013.5 0.0
23/01:00am 15.9 15.7 8.9 63 3.8 CALM 0 0 0 0 1016.6 1013.6 0.0
23/12:30am 16.7 16.4 8.7 59 4.3 CALM 0 0 0 0 1016.8 1013.9 0.0
23/12:00am 15.1 14.8 8.6 65 3.5 CALM 0 4 0 2 1017.2 1014.2 0.0
 
Date/Time
EDT
Temp
°C
App
Temp
°C
Dew
Point
Rel
Hum
%
Delta-T
°C
Wind Press
QNH
hPa
Press
MSL
hPa
Rain
since 9 am
mm
Dir
 
Spd
km/h
Gust
km/h
Spd
kts
Gust
kts
22/11:30pm 17.1 16.8 8.5 57 4.6 CALM 0 0 0 0 1017.3 1014.3 0.0
22/11:00pm 17.4 17.0 8.3 55 4.9 CALM 0 0 0 0 1017.5 1014.5 0.0
22/10:30pm 18.7 18.6 9.5 55 5.1 CALM 0 0 0 0 1017.6 1014.6 0.0
22/10:00pm 18.6 18.1 7.7 49 5.8 CALM 0 0 0 0 1017.4 1014.4 0.0
22/09:30pm 19.5 18.9 7.3 45 6.5 CALM 0 0 0 0 1017.3 1014.3 0.0
22/09:00pm 22.1 20.3 7.9 40 7.8 SW 7 9 4 5 1017.2 1014.2 0.0
22/08:30pm 22.0 19.4 6.3 36 8.3 SW 9 9 5 5 1016.8 1013.9 0.0
22/08:00pm 23.1 20.2 6.4 34 8.9 SW 11 13 6 7 1016.7 1013.8 0.0
22/07:30pm 25.0 22.4 6.2 30 10.1 SW 9 13 5 7 1016.3 1013.3 0.0
22/07:00pm 26.6 23.7 6.6 28 11.0 SW 11 15 6 8 1015.7 1012.7 0.0
22/06:30pm 27.9 23.7 5.5 24 12.1 SW 17 22 9 12 1015.4 1012.4 0.0
22/06:00pm 27.7 23.3 6.5 26 11.7 SW 19 26 10 14 1015.5 1012.5 0.0
22/05:30pm 29.8 24.0 4.4 20 13.6 W 24 32 13 17 1015.4 1012.4 0.0
22/05:00pm 31.6 26.0 5.2 19 14.5 WNW 24 33 13 18 1015.4 1012.4 0.0
22/04:30pm 30.9 24.9 5.3 20 14.0 W 26 39 14 21 1015.3 1012.3 0.0
22/04:00pm 30.5 25.0 5.7 21 13.7 W 24 35 13 19 1015.4 1012.4 0.0
22/03:30pm 30.7 25.4 6.6 22 13.5 NW 24 32 13 17 1015.6 1012.6 0.0
22/03:00pm 30.8 25.5 6.6 22 13.5 NW 24 30 13 16 1015.7 1012.7 0.0
22/02:30pm 30.7 24.7 5.2 20 14.0 NW 26 37 14 20 1015.9 1012.9 0.0
22/02:00pm 31.0 25.3 6.8 22 13.6 NW 26 39 14 21 1016.2 1013.2 0.0
22/01:30pm 30.3 25.2 6.2 22 13.4 NW 22 39 12 21 1016.3 1013.3 0.0
22/01:00pm 29.9 25.9 8.9 27 12.1 NNW 20 37 11 20 1016.6 1013.6 0.0
22/12:30pm 29.3 24.6 9.4 29 11.6 NW 24 39 13 21 1017.1 1014.1 0.0
22/12:00pm 29.0 25.2 9.2 29 11.5 WNW 19 30 10 16 1017.3 1014.3 0.0
22/11:30am 28.1 24.0 7.9 28 11.4 NW 19 28 10 15 1017.3 1014.3 0.0
22/11:00am 27.3 23.1 8.2 30 10.8 NW 20 32 11 17 1017.4 1014.4 0.0
22/10:30am 27.3 24.0 9.6 33 10.2 NW 17 26 9 14 1017.6 1014.6 0.0
22/10:00am 25.9 23.4 9.7 36 9.3 NNW 13 20 7 11 1017.5 1014.5 0.0
22/09:30am 25.3 22.3 9.2 36 9.2 N 15 20 8 11 1017.6 1014.6 0.0

Other Formats:

Comma delimited format used in spreadsheet applications
http://www.bom.gov.au/fwo/IDN60801/IDN60801.95726.axf

JavaScript Object Notation format (JSON) in row-major order
http://www.bom.gov.au/fwo/IDN60801/IDN60801.95726.json